createdAt,value
2019-04-25T00:00:09.795Z,98797.41
2019-04-25T00:02:43.952Z,98787.66
2019-04-25T00:05:16.103Z,98791.83
2019-04-25T00:07:47.142Z,98785.13
2019-04-25T00:10:18.052Z,98789.72
2019-04-25T00:12:48.712Z,98773.42
2019-04-25T00:15:19.821Z,98787.75
2019-04-25T00:17:52.120Z,98790.59
2019-04-25T00:20:23.064Z,98795.40
2019-04-25T00:23:02.005Z,98804.33
2019-04-25T00:25:52.709Z,98796.34
2019-04-25T00:28:23.572Z,98797.47
2019-04-25T00:30:54.231Z,98799.05
2019-04-25T00:33:24.901Z,98817.50
2019-04-25T00:35:55.543Z,98812.82
2019-04-25T00:38:26.153Z,98810.09
2019-04-25T00:40:56.859Z,98818.56
2019-04-25T00:43:27.582Z,98809.87
2019-04-25T00:45:58.202Z,98821.02
2019-04-25T00:48:28.782Z,98813.43
2019-04-25T00:50:59.502Z,98819.92
2019-04-25T00:53:30.088Z,98822.03
2019-04-25T00:56:01.466Z,98823.86
2019-04-25T00:58:46.756Z,98821.25
2019-04-25T01:01:29.051Z,98824.91
2019-04-25T01:03:59.653Z,98815.55
2019-04-25T01:06:31.856Z,98818.71
2019-04-25T01:09:03.733Z,98822.91
2019-04-25T01:11:34.562Z,98814.60
2019-04-25T01:14:05.458Z,98816.01
2019-04-25T01:16:36.104Z,98821.30
2019-04-25T01:19:07.351Z,98819.50
2019-04-25T01:21:37.938Z,98817.50
2019-04-25T01:24:08.623Z,98811.54
2019-04-25T01:26:39.313Z,98819.46
2019-04-25T01:29:10.021Z,98831.95
2019-04-25T01:31:40.681Z,98835.70
2019-04-25T01:34:14.175Z,98829.66
2019-04-25T01:36:58.923Z,98828.75
2019-04-25T01:39:44.080Z,98823.41
2019-04-25T01:42:33.817Z,98827.67
2019-04-25T01:45:05.451Z,98826.61
2019-04-25T01:47:36.282Z,98826.27
2019-04-25T01:50:08.596Z,98817.67
2019-04-25T01:52:39.871Z,98814.38
2019-04-25T01:55:10.871Z,98816.58
2019-04-25T01:57:43.712Z,98825.55
2019-04-25T02:00:17.193Z,98817.30
2019-04-25T02:02:47.838Z,98810.50
2019-04-25T02:05:18.661Z,98807.84
2019-04-25T02:07:49.303Z,98808.77
2019-04-25T02:10:20.582Z,98806.64
2019-04-25T02:12:56.395Z,98804.73
2019-04-25T02:15:30.516Z,98804.51
2019-04-25T02:18:01.834Z,98808.02
2019-04-25T02:20:33.949Z,98806.95
2019-04-25T02:23:05.251Z,98806.95
2019-04-25T02:25:35.971Z,98808.83
2019-04-25T02:28:06.662Z,98804.86
2019-04-25T02:30:37.326Z,98805.09
2019-04-25T02:33:09.257Z,98803.90
2019-04-25T02:35:43.109Z,98808.63
2019-04-25T02:38:16.542Z,98806.95
2019-04-25T02:40:45.422Z,98807.73
2019-04-25T02:43:16.412Z,98814.17
2019-04-25T02:46:07.775Z,98808.25
2019-04-25T02:48:59.627Z,98810.96
2019-04-25T02:51:37.703Z,98801.77
2019-04-25T02:54:08.382Z,98806.11
2019-04-25T02:56:39.272Z,98807.81
2019-04-25T02:59:09.953Z,98804.77
2019-04-25T03:01:40.704Z,98807.58
2019-04-25T03:04:11.662Z,98814.13
2019-04-25T03:06:44.879Z,98809.44
2019-04-25T03:09:15.625Z,98802.22
2019-04-25T03:11:47.733Z,98802.27
2019-04-25T03:14:18.594Z,98798.14
2019-04-25T03:16:49.813Z,98801.57
2019-04-25T03:19:28.597Z,98794.66
2019-04-25T03:22:01.544Z,98797.92
2019-04-25T03:24:35.140Z,98797.37
2019-04-25T03:27:06.235Z,98801.88
2019-04-25T03:29:56.919Z,98803.23
2019-04-25T03:32:28.380Z,98809.59
2019-04-25T03:35:18.558Z,98804.50
2019-04-25T03:37:49.163Z,98805.80
2019-04-25T03:40:19.720Z,98812.22
2019-04-25T03:42:50.422Z,98820.52
2019-04-25T03:45:21.062Z,98828.69
2019-04-25T03:47:53.032Z,98824.97
2019-04-25T03:50:23.903Z,98834.04
2019-04-25T03:52:54.533Z,98840.45
2019-04-25T03:55:25.113Z,98857.77
2019-04-25T03:57:55.821Z,98881.39
2019-04-25T04:00:27.099Z,98893.61
2019-04-25T04:02:57.735Z,98888.88
2019-04-25T04:05:28.463Z,98894.15
2019-04-25T04:07:59.271Z,98902.05
2019-04-25T04:10:29.821Z,98899.40
2019-04-25T04:13:00.477Z,98907.25
2019-04-25T04:15:31.241Z,98910.25
2019-04-25T04:18:16.264Z,98911.37
2019-04-25T04:21:05.407Z,98895.38
2019-04-25T04:23:43.069Z,98887.23
2019-04-25T04:26:14.518Z,98897.28
2019-04-25T04:28:45.301Z,98908.17
2019-04-25T04:31:16.587Z,98920.03
2019-04-25T04:33:47.402Z,98921.88
2019-04-25T04:36:19.012Z,98916.52
2019-04-25T04:38:49.865Z,98907.69
2019-04-25T04:41:20.711Z,98902.25
2019-04-25T04:43:51.362Z,98915.91
2019-04-25T04:46:23.660Z,98897.34
2019-04-25T04:48:55.365Z,98914.67
2019-04-25T04:51:26.091Z,98929.19
2019-04-25T04:53:56.821Z,98921.42
2019-04-25T04:56:27.392Z,98944.58
2019-04-25T04:58:57.928Z,98946.08
2019-04-25T05:01:30.247Z,98929.06
2019-04-25T05:04:07.907Z,98962.86
2019-04-25T05:06:45.572Z,98965.37
2019-04-25T05:09:19.783Z,98963.59
2019-04-25T05:11:50.525Z,98964.20
2019-04-25T05:14:21.133Z,98979.42
2019-04-25T05:16:53.189Z,98972.16
2019-04-25T05:19:23.948Z,98972.25
2019-04-25T05:21:54.703Z,98982.56
2019-04-25T05:24:26.352Z,98976.89
2019-04-25T05:26:57.122Z,98975.19
2019-04-25T05:29:27.938Z,98974.30
2019-04-25T05:31:58.924Z,98967.84
2019-04-25T05:34:31.521Z,98968.81
2019-04-25T05:37:03.844Z,98972.87
2019-04-25T05:39:35.116Z,98972.16
2019-04-25T05:42:17.172Z,98976.39
2019-04-25T05:44:48.496Z,98982.31
2019-04-25T05:47:21.345Z,98987.98
2019-04-25T05:49:51.609Z,98988.37
2019-04-25T05:52:24.002Z,98984.19
2019-04-25T05:54:54.654Z,98989.72
2019-04-25T05:57:26.081Z,98997.97
2019-04-25T05:59:57.208Z,98990.67
2019-04-25T06:02:28.040Z,98991.19
2019-04-25T06:04:59.494Z,98994.00
2019-04-25T06:07:30.184Z,98990.58
2019-04-25T06:10:19.562Z,98984.89
2019-04-25T06:12:56.671Z,98981.17
2019-04-25T06:15:29.460Z,98977.53
2019-04-25T06:18:14.385Z,98980.23
2019-04-25T06:20:45.354Z,98986.66
2019-04-25T06:23:26.847Z,98998.12
2019-04-25T06:25:57.594Z,98997.02
2019-04-25T06:28:29.992Z,98999.33
2019-04-25T06:31:00.767Z,99004.95
2019-04-25T06:33:32.363Z,98993.16
2019-04-25T06:36:04.212Z,99003.23
2019-04-25T06:38:35.071Z,99006.70
2019-04-25T06:41:06.081Z,99003.95
2019-04-25T06:43:38.351Z,99002.33
2019-04-25T06:46:28.693Z,99009.83
2019-04-25T06:49:06.792Z,99015.89
2019-04-25T06:51:56.222Z,99016.16
2019-04-25T06:54:28.035Z,99027.34
2019-04-25T06:56:58.778Z,99039.41
2019-04-25T06:59:30.115Z,99042.86
2019-04-25T07:02:00.871Z,99049.09
2019-04-25T07:04:31.481Z,99055.95
2019-04-25T07:07:10.681Z,99054.48
2019-04-25T07:09:35.975Z,99061.25
2019-04-25T07:12:06.815Z,99066.55
2019-04-25T07:14:37.573Z,99068.23
2019-04-25T07:17:08.278Z,99064.71
2019-04-25T07:19:38.914Z,99072.56
2019-04-25T07:22:09.568Z,99073.23
2019-04-25T07:24:40.171Z,99063.99
2019-04-25T07:27:25.466Z,99066.09
2019-04-25T07:30:26.990Z,99069.20
2019-04-25T07:32:52.032Z,99072.39
2019-04-25T07:35:23.326Z,99070.14
2019-04-25T07:37:54.051Z,99076.89
2019-04-25T07:40:25.685Z,99074.13
2019-04-25T07:42:56.596Z,99084.11
2019-04-25T07:45:27.341Z,99079.68
2019-04-25T07:47:57.997Z,99087.20
2019-04-25T07:50:28.802Z,99082.72
2019-04-25T07:52:59.423Z,99086.16
2019-04-25T07:55:30.048Z,99083.31
2019-04-25T07:58:03.110Z,99091.53
2019-04-25T08:00:35.256Z,99090.01
2019-04-25T08:03:06.470Z,99096.98
2019-04-25T08:05:37.865Z,99108.46
2019-04-25T08:08:08.662Z,99106.39
2019-04-25T08:11:05.352Z,99102.05
2019-04-25T08:13:48.452Z,99098.19
2019-04-25T08:16:21.101Z,99101.28
2019-04-25T08:18:53.866Z,99103.18
2019-04-25T08:21:25.155Z,99099.27
2019-04-25T08:23:57.114Z,99097.63
2019-04-25T08:26:29.424Z,99088.24
2019-04-25T08:29:00.585Z,99096.97
2019-04-25T08:31:31.337Z,99099.66
2019-04-25T08:34:03.597Z,99103.30
2019-04-25T08:36:37.042Z,99112.11
2019-04-25T08:39:10.451Z,99107.08
2019-04-25T08:41:41.164Z,99106.14
2019-04-25T08:44:31.606Z,99112.88
2019-04-25T08:47:04.513Z,99117.48
2019-04-25T08:49:49.587Z,99105.98
2019-04-25T08:52:20.313Z,99121.02
2019-04-25T08:55:04.910Z,99112.95
2019-04-25T08:57:55.008Z,99126.44
2019-04-25T09:00:57.877Z,99123.41
2019-04-25T09:03:21.542Z,99130.11
2019-04-25T09:05:53.452Z,99139.69
2019-04-25T09:08:24.593Z,99131.23
2019-04-25T09:10:55.638Z,99134.88
2019-04-25T09:13:26.366Z,99127.81
2019-04-25T09:15:57.033Z,99128.82
2019-04-25T09:18:27.981Z,99133.59
2019-04-25T09:20:59.088Z,99133.69
2019-04-25T09:23:29.773Z,99131.19
2019-04-25T09:26:00.479Z,99119.64
2019-04-25T09:28:31.192Z,99115.14
2019-04-25T09:31:01.669Z,99112.84
2019-04-25T09:33:32.189Z,99115.70
2019-04-25T09:36:02.705Z,99121.74
2019-04-25T09:38:34.759Z,99125.27
2019-04-25T09:41:05.464Z,99127.94
2019-04-25T09:43:36.014Z,99123.36
2019-04-25T09:46:14.661Z,99128.20
2019-04-25T09:48:55.050Z,99131.23
2019-04-25T09:51:33.651Z,99134.11
2019-04-25T09:54:23.726Z,99141.16
2019-04-25T09:56:58.101Z,99148.34
2019-04-25T09:59:30.099Z,99144.67
2019-04-25T10:02:01.072Z,99138.97
2019-04-25T10:04:34.484Z,99151.16
2019-04-25T10:07:03.911Z,99149.16
2019-04-25T10:09:34.445Z,99156.94
2019-04-25T10:12:05.141Z,99157.97
2019-04-25T10:15:01.868Z,99158.31
2019-04-25T10:17:33.814Z,99149.45
2019-04-25T10:20:04.675Z,99146.58
2019-04-25T10:22:35.334Z,99154.00
2019-04-25T10:25:06.895Z,99137.25
2019-04-25T10:27:38.310Z,99138.64
2019-04-25T10:30:17.721Z,99133.50
2019-04-25T10:32:44.272Z,99133.02
2019-04-25T10:35:15.188Z,99136.77
2019-04-25T10:37:46.571Z,99123.91
2019-04-25T10:40:18.141Z,99123.08
2019-04-25T10:42:50.587Z,99112.17
2019-04-25T10:45:25.469Z,99106.26
2019-04-25T10:47:55.279Z,99101.84
2019-04-25T10:50:26.134Z,99106.23
2019-04-25T10:52:56.545Z,99097.86
2019-04-25T10:55:27.239Z,99095.76
2019-04-25T10:57:58.211Z,99086.94
2019-04-25T11:00:39.820Z,99088.88
2019-04-25T11:03:30.642Z,99083.45
2019-04-25T11:06:01.381Z,99083.63
2019-04-25T11:08:33.845Z,99079.90
2019-04-25T11:11:04.618Z,99092.09
2019-04-25T11:13:35.576Z,99085.91
2019-04-25T11:16:07.822Z,99097.39
2019-04-25T11:18:38.495Z,99093.69
2019-04-25T11:21:09.142Z,99080.84
2019-04-25T11:23:41.272Z,99084.75
2019-04-25T11:26:13.739Z,99086.45
2019-04-25T11:28:45.391Z,99085.36
2019-04-25T11:31:34.971Z,99084.77
2019-04-25T11:34:07.660Z,99094.13
2019-04-25T11:36:38.208Z,99083.88
2019-04-25T11:39:32.044Z,99080.23
2019-04-25T11:42:03.864Z,99089.98
2019-04-25T11:44:35.044Z,99088.41
2019-04-25T11:47:07.676Z,99082.88
2019-04-25T11:49:38.111Z,99081.64
2019-04-25T11:52:09.991Z,99081.23
2019-04-25T11:54:40.924Z,99077.63
2019-04-25T11:57:11.460Z,99075.02
2019-04-25T11:59:42.834Z,99070.38
2019-04-25T12:02:14.489Z,99069.95
2019-04-25T12:04:46.418Z,99064.56
2019-04-25T12:07:17.676Z,99066.99
2019-04-25T12:09:48.215Z,99070.39
2019-04-25T12:12:18.838Z,99063.64
2019-04-25T12:14:49.606Z,99061.02
2019-04-25T12:17:20.502Z,99061.78
2019-04-25T12:19:51.190Z,99063.75
2019-04-25T12:22:21.840Z,99062.09
2019-04-25T12:24:54.358Z,99059.20
2019-04-25T12:27:24.548Z,99056.72
2019-04-25T12:29:55.162Z,99061.56
2019-04-25T12:32:25.681Z,99062.73
2019-04-25T12:34:56.346Z,99057.16
2019-04-25T12:37:27.088Z,99055.07
2019-04-25T12:39:57.718Z,99054.76
2019-04-25T12:42:28.341Z,99060.84
2019-04-25T12:45:17.891Z,99054.66
2019-04-25T12:47:49.508Z,99063.76
2019-04-25T12:50:20.124Z,99060.36
2019-04-25T12:52:50.851Z,99053.61
2019-04-25T12:55:21.652Z,99055.70
2019-04-25T12:57:54.887Z,99054.44
2019-04-25T13:00:26.597Z,99053.66
2019-04-25T13:02:58.693Z,99051.10
2019-04-25T13:05:29.347Z,99042.25
2019-04-25T13:08:01.055Z,99051.45
2019-04-25T13:10:33.276Z,99046.89
2019-04-25T13:13:04.086Z,99046.33
2019-04-25T13:15:35.591Z,99042.77
2019-04-25T13:18:06.161Z,99034.31
2019-04-25T13:20:36.927Z,99039.68
2019-04-25T13:23:09.330Z,99035.48
2019-04-25T13:25:39.975Z,99037.93
2019-04-25T13:28:29.532Z,99036.98
2019-04-25T13:31:17.133Z,99033.59
2019-04-25T13:33:59.101Z,99041.34
2019-04-25T13:36:29.618Z,99033.20
2019-04-25T13:39:00.278Z,99042.64
2019-04-25T13:41:30.845Z,99033.47
2019-04-25T13:44:01.417Z,99044.05
2019-04-25T13:46:33.940Z,99027.64
2019-04-25T13:49:04.514Z,99026.05
2019-04-25T13:51:35.072Z,99027.23
2019-04-25T13:54:05.955Z,99021.00
2019-04-25T13:56:40.400Z,99020.04
2019-04-25T13:59:09.197Z,99014.27
2019-04-25T14:01:40.083Z,99005.92
2019-04-25T14:04:10.708Z,99009.08
2019-04-25T14:06:41.302Z,99004.66
2019-04-25T14:09:15.998Z,99012.27
2019-04-25T14:11:46.897Z,99003.88
2019-04-25T14:14:17.777Z,99004.45
2019-04-25T14:17:06.712Z,99000.06
2019-04-25T14:19:54.423Z,99001.91
2019-04-25T14:22:25.837Z,99001.09
2019-04-25T14:24:56.452Z,98996.25
2019-04-25T14:27:28.039Z,98995.36
2019-04-25T14:29:58.839Z,98992.18
2019-04-25T14:32:30.172Z,98990.87
2019-04-25T14:35:00.871Z,98994.31
2019-04-25T14:37:39.074Z,98986.88
2019-04-25T14:40:05.395Z,98983.62
2019-04-25T14:42:36.013Z,98981.53
2019-04-25T14:45:07.788Z,98979.21
2019-04-25T14:47:38.449Z,98985.68
2019-04-25T14:50:09.552Z,98985.96
2019-04-25T14:52:40.861Z,98985.55
2019-04-25T14:55:28.384Z,98983.09
2019-04-25T14:57:59.534Z,98981.38
2019-04-25T15:00:37.643Z,98980.55
2019-04-25T15:03:08.534Z,98976.53
2019-04-25T15:05:41.863Z,98978.42
2019-04-25T15:08:11.847Z,98981.96
2019-04-25T15:10:42.467Z,98974.95
2019-04-25T15:13:13.126Z,98976.80
2019-04-25T15:15:43.829Z,98978.45
2019-04-25T15:18:14.505Z,98980.64
2019-04-25T15:20:45.045Z,98973.59
2019-04-25T15:23:15.681Z,98977.98
2019-04-25T15:25:46.219Z,98975.34
2019-04-25T15:28:16.882Z,98972.31
2019-04-25T15:30:47.745Z,98975.36
2019-04-25T15:33:18.272Z,98971.92
2019-04-25T15:35:54.616Z,98971.02
2019-04-25T15:38:31.876Z,98971.87
2019-04-25T15:41:11.692Z,98977.64
2019-04-25T15:43:52.469Z,98969.77
2019-04-25T15:46:27.298Z,98971.96
2019-04-25T15:48:57.937Z,98969.84
2019-04-25T15:51:28.528Z,98970.32
2019-04-25T15:53:59.182Z,98963.73
2019-04-25T15:56:30.245Z,98967.73
2019-04-25T15:59:00.902Z,98958.50
2019-04-25T16:01:32.398Z,98965.95
2019-04-25T16:04:02.992Z,98961.05
2019-04-25T16:06:34.026Z,98961.58
2019-04-25T16:09:05.823Z,98965.55
2019-04-25T16:11:36.354Z,98958.88
2019-04-25T16:14:07.103Z,98965.97
2019-04-25T16:16:38.366Z,98956.28
2019-04-25T16:19:09.547Z,98955.91
2019-04-25T16:21:42.076Z,98954.58
2019-04-25T16:24:12.205Z,98961.68
2019-04-25T16:26:42.784Z,98956.84
2019-04-25T16:29:13.562Z,98956.81
2019-04-25T16:31:44.212Z,98955.50
2019-04-25T16:34:14.788Z,98960.45
2019-04-25T16:36:45.458Z,98961.83
2019-04-25T16:39:19.320Z,98965.81
2019-04-25T16:41:49.844Z,98963.17
2019-04-25T16:44:21.981Z,98962.73
2019-04-25T16:46:52.910Z,98962.31
2019-04-25T16:49:23.473Z,98962.32
2019-04-25T16:51:54.026Z,98961.88
2019-04-25T16:54:24.611Z,98962.76
2019-04-25T16:56:55.258Z,98959.69
2019-04-25T16:59:25.813Z,98964.10
2019-04-25T17:01:56.363Z,98959.25
2019-04-25T17:04:26.977Z,98957.93
2019-04-25T17:06:57.504Z,98965.41
2019-04-25T17:09:29.605Z,98961.91
2019-04-25T17:12:00.729Z,98963.20
2019-04-25T17:14:50.172Z,98963.18
2019-04-25T17:17:31.720Z,98971.53
2019-04-25T17:20:21.161Z,98962.70
2019-04-25T17:22:51.854Z,98964.90
2019-04-25T17:25:23.050Z,98957.41
2019-04-25T17:27:53.638Z,98962.66
2019-04-25T17:30:24.617Z,98962.66
2019-04-25T17:33:14.035Z,98960.45
2019-04-25T17:36:03.507Z,98963.05
2019-04-25T17:38:37.682Z,98956.45
2019-04-25T17:41:08.681Z,98954.13
2019-04-25T17:43:39.331Z,98960.62
2019-04-25T17:46:12.012Z,98958.33
2019-04-25T17:48:43.126Z,98956.35
2019-04-25T17:51:13.881Z,98957.25
2019-04-25T17:53:44.476Z,98958.14
2019-04-25T17:56:15.234Z,98956.31
2019-04-25T17:58:45.986Z,98958.39
2019-04-25T18:01:21.135Z,98961.83
2019-04-25T18:03:51.750Z,98958.18
2019-04-25T18:06:22.634Z,98952.91
2019-04-25T18:08:53.493Z,98957.59
2019-04-25T18:11:25.322Z,98960.75
2019-04-25T18:13:55.880Z,98968.62
2019-04-25T18:16:32.228Z,98968.00
2019-04-25T18:19:14.017Z,98966.36
2019-04-25T18:21:45.079Z,98966.08
2019-04-25T18:24:35.354Z,98971.38
2019-04-25T18:27:17.244Z,98968.12
2019-04-25T18:29:48.323Z,98967.30
2019-04-25T18:32:20.091Z,98971.95
2019-04-25T18:34:59.122Z,98963.26
2019-04-25T18:37:47.867Z,98960.74
2019-04-25T18:40:37.852Z,98959.61
2019-04-25T18:43:19.751Z,98962.92
2019-04-25T18:45:55.232Z,98963.85
2019-04-25T18:48:25.914Z,98963.72
2019-04-25T18:50:56.746Z,98961.89
2019-04-25T18:53:47.311Z,98964.64
2019-04-25T18:56:28.131Z,98966.53
2019-04-25T18:59:17.682Z,98967.86
2019-04-25T19:02:00.531Z,98963.84
2019-04-25T19:04:42.241Z,98970.88
2019-04-25T19:07:22.189Z,98975.25
2019-04-25T19:09:52.380Z,98971.80
2019-04-25T19:12:24.902Z,98967.53
2019-04-25T19:14:56.652Z,98970.95
2019-04-25T19:17:29.547Z,98963.10
2019-04-25T19:20:04.620Z,98964.56
2019-04-25T19:22:41.518Z,98964.98
2019-04-25T19:25:16.053Z,98964.28
2019-04-25T19:27:51.030Z,98962.62
2019-04-25T19:30:21.998Z,98958.08
2019-04-25T19:32:53.695Z,98960.12
2019-04-25T19:35:25.470Z,98961.30
2019-04-25T19:37:57.243Z,98962.25
2019-04-25T19:40:38.093Z,98959.78
2019-04-25T19:43:18.713Z,98960.22
2019-04-25T19:45:49.490Z,98969.57
2019-04-25T19:48:28.615Z,98961.50
2019-04-25T19:50:59.654Z,98964.14
2019-04-25T19:53:32.373Z,98960.45
2019-04-25T19:56:06.842Z,98960.33
2019-04-25T19:58:38.507Z,98963.44
2019-04-25T20:01:12.802Z,98960.98
2019-04-25T20:03:58.021Z,98969.30
2019-04-25T20:06:49.629Z,98966.57
2019-04-25T20:09:44.790Z,98969.47
2019-04-25T20:12:16.760Z,98975.25
2019-04-25T20:14:51.329Z,98977.44
2019-04-25T20:17:26.337Z,98973.61
2019-04-25T20:19:56.961Z,98963.95
2019-04-25T20:22:33.452Z,98964.61
2019-04-25T20:25:04.140Z,98966.67
2019-04-25T20:27:34.832Z,98961.98
2019-04-25T20:30:07.846Z,98964.34
2019-04-25T20:32:44.738Z,98964.40
2019-04-25T20:35:16.982Z,98964.45
2019-04-25T20:37:47.792Z,98964.84
2019-04-25T20:40:19.917Z,98968.74
2019-04-25T20:42:52.727Z,98961.52
2019-04-25T20:45:24.739Z,98970.50
2019-04-25T20:47:55.240Z,98961.23
2019-04-25T20:50:27.245Z,98961.85
2019-04-25T20:52:57.862Z,98966.17
2019-04-25T20:55:28.452Z,98959.14
2019-04-25T20:57:59.098Z,98966.59
2019-04-25T21:00:51.918Z,98966.92
2019-04-25T21:03:22.473Z,98974.27
2019-04-25T21:05:55.222Z,98969.39
2019-04-25T21:08:25.849Z,98966.24
2019-04-25T21:10:56.421Z,98966.58
2019-04-25T21:13:35.538Z,98959.84
2019-04-25T21:16:25.032Z,98958.13
2019-04-25T21:19:03.781Z,98964.10
2019-04-25T21:21:34.452Z,98960.03
2019-04-25T21:24:05.174Z,98962.47
2019-04-25T21:26:35.682Z,98959.46
2019-04-25T21:29:06.311Z,98952.80
2019-04-25T21:31:37.233Z,98957.31
2019-04-25T21:34:07.811Z,98959.11
2019-04-25T21:36:38.743Z,98955.44
2019-04-25T21:39:16.853Z,98953.00
2019-04-25T21:41:53.991Z,98951.97
2019-04-25T21:44:27.716Z,98944.47
2019-04-25T21:47:10.070Z,98950.08
2019-04-25T21:49:56.569Z,98947.83
2019-04-25T21:52:44.882Z,98944.81
2019-04-25T21:55:25.638Z,98941.98
2019-04-25T21:58:03.364Z,98943.70
2019-04-25T22:00:58.299Z,98938.52
2019-04-25T22:06:33.641Z,98946.33
2019-04-25T22:09:25.420Z,98938.14
2019-04-25T22:11:59.316Z,98939.86
2019-04-25T22:14:30.135Z,98940.36
2019-04-25T22:17:01.886Z,98937.75
2019-04-25T22:19:32.876Z,98935.70
2019-04-25T22:22:04.667Z,98941.78
2019-04-25T22:24:35.212Z,98933.90
2019-04-25T22:27:09.202Z,98927.73
2019-04-25T22:29:42.682Z,98923.48
2019-04-25T22:32:32.277Z,98930.02
2019-04-25T22:35:21.771Z,98930.77
2019-04-25T22:37:52.496Z,98930.55
2019-04-25T22:40:23.184Z,98933.06
2019-04-25T22:42:53.739Z,98932.59
2019-04-25T22:45:24.919Z,98936.13
2019-04-25T22:47:55.923Z,98927.59
2019-04-25T22:50:26.775Z,98929.35
2019-04-25T22:52:57.776Z,98927.48
2019-04-25T22:55:28.194Z,98926.37
2019-04-25T22:57:58.761Z,98930.22
2019-04-25T23:00:34.403Z,98927.45
2019-04-25T23:03:10.231Z,98920.72
2019-04-25T23:05:49.231Z,98917.19
2019-04-25T23:08:20.094Z,98915.27
2019-04-25T23:10:50.639Z,98906.44
2019-04-25T23:13:21.364Z,98904.59
2019-04-25T23:15:51.931Z,98911.96
2019-04-25T23:18:22.852Z,98902.67
2019-04-25T23:20:53.494Z,98906.95
2019-04-25T23:23:24.231Z,98907.49
2019-04-25T23:26:05.161Z,98904.30
2019-04-25T23:28:40.159Z,98912.05
2019-04-25T23:31:14.791Z,98909.53
2019-04-25T23:33:45.884Z,98903.06
2019-04-25T23:36:16.793Z,98901.24
2019-04-25T23:38:47.494Z,98892.66
2019-04-25T23:41:18.388Z,98901.69
2019-04-25T23:43:48.953Z,98891.83
2019-04-25T23:46:19.598Z,98887.62
2019-04-25T23:48:50.126Z,98886.69
2019-04-25T23:51:20.776Z,98878.37
2019-04-25T23:53:51.586Z,98877.29
2019-04-25T23:56:22.178Z,98870.43
2019-04-25T23:58:52.943Z,98865.69
